createdAt,value
2023-02-28T00:02:10.378Z,2.38
2023-02-28T00:04:38.462Z,2.90
2023-02-28T00:07:05.188Z,2.40
2023-02-28T00:09:32.064Z,2.70
2023-02-28T00:11:58.828Z,2.78
2023-02-28T00:14:25.626Z,3.05
2023-02-28T00:16:52.373Z,2.33
2023-02-28T00:19:19.121Z,2.20
2023-02-28T00:21:47.335Z,2.70
2023-02-28T00:24:14.054Z,2.08
2023-02-28T00:26:40.805Z,2.22
2023-02-28T00:29:07.514Z,2.15
2023-02-28T00:31:34.266Z,1.83
2023-02-28T00:34:01.006Z,1.92
2023-02-28T00:36:27.782Z,2.15
2023-02-28T00:38:55.889Z,2.45
2023-02-28T00:41:22.642Z,2.85
2023-02-28T00:43:49.375Z,2.28
2023-02-28T00:46:16.344Z,2.42
2023-02-28T00:48:43.122Z,2.72
2023-02-28T00:51:10.134Z,2.88
2023-02-28T00:53:36.917Z,3.40
2023-02-28T00:56:05.748Z,2.63
2023-02-28T00:58:32.555Z,1.92
2023-02-28T01:00:59.296Z,2.28
2023-02-28T01:03:26.059Z,2.15
2023-02-28T01:05:52.842Z,2.03
2023-02-28T01:08:19.902Z,1.88
2023-02-28T01:10:46.837Z,2.95
2023-02-28T01:13:15.692Z,2.22
2023-02-28T01:15:49.217Z,2.35
2023-02-28T01:18:16.018Z,2.38
2023-02-28T01:20:42.808Z,2.95
2023-02-28T01:23:09.942Z,2.05
2023-02-28T01:25:37.595Z,2.53
2023-02-28T01:28:04.971Z,2.45
2023-02-28T01:30:33.465Z,2.25
2023-02-28T01:33:00.912Z,2.55
2023-02-28T01:35:27.669Z,2.88
2023-02-28T01:37:54.402Z,2.90
2023-02-28T01:40:21.250Z,2.40
2023-02-28T01:42:48.150Z,3.35
2023-02-28T01:45:23.123Z,2.38
2023-02-28T01:47:52.997Z,2.65
2023-02-28T01:50:23.568Z,2.65
2023-02-28T01:52:51.556Z,2.80
2023-02-28T01:55:20.864Z,2.90
2023-02-28T01:57:51.533Z,1.85
2023-02-28T02:00:22.472Z,2.30
2023-02-28T02:02:54.765Z,2.78
2023-02-28T02:05:23.149Z,2.67
2023-02-28T02:07:53.352Z,3.63
2023-02-28T02:10:22.598Z,1.98
2023-02-28T02:13:09.048Z,2.47
2023-02-28T02:15:42.563Z,2.90
2023-02-28T02:18:21.579Z,2.75
2023-02-28T02:21:10.741Z,2.45
2023-02-28T02:24:08.320Z,3.10
2023-02-28T02:26:56.372Z,2.30
2023-02-28T02:29:44.537Z,3.17
2023-02-28T02:32:27.082Z,2.53
2023-02-28T02:35:05.223Z,2.72
2023-02-28T02:37:39.304Z,3.35
2023-02-28T02:40:14.024Z,3.22
2023-02-28T02:42:46.377Z,3.42
2023-02-28T02:45:16.619Z,3.05
2023-02-28T02:47:44.504Z,2.88
2023-02-28T02:50:18.488Z,3.53
2023-02-28T02:52:49.361Z,2.88
2023-02-28T02:55:17.793Z,3.25
2023-02-28T02:57:48.362Z,4.50
2023-02-28T03:00:17.654Z,2.72
2023-02-28T03:02:46.544Z,2.95
2023-02-28T03:05:20.290Z,3.25
2023-02-28T03:07:47.016Z,3.45
2023-02-28T03:10:32.476Z,3.17
2023-02-28T03:13:11.776Z,3.85
2023-02-28T03:15:51.616Z,2.85
2023-02-28T03:18:26.079Z,2.38
2023-02-28T03:21:01.941Z,4.07
2023-02-28T03:23:37.862Z,2.72
2023-02-28T03:26:11.791Z,3.67
2023-02-28T03:31:14.394Z,3.03
2023-02-28T03:33:46.912Z,4.47
2023-02-28T03:36:19.240Z,2.90
2023-02-28T03:38:50.131Z,3.28
2023-02-28T03:41:21.325Z,3.58
2023-02-28T03:43:52.236Z,3.60
2023-02-28T03:46:24.650Z,4.40
2023-02-28T03:48:56.732Z,3.28
2023-02-28T03:51:27.231Z,3.95
2023-02-28T03:53:57.459Z,3.22
2023-02-28T03:56:28.961Z,3.22
2023-02-28T03:59:01.501Z,3.72
2023-02-28T04:01:33.165Z,3.58
2023-02-28T04:04:00.114Z,3.58
2023-02-28T04:06:28.541Z,3.42
2023-02-28T04:08:55.214Z,2.90
2023-02-28T04:11:25.003Z,3.47
2023-02-28T04:13:51.698Z,3.83
2023-02-28T04:16:33.869Z,3.72
2023-02-28T04:19:01.728Z,3.80
2023-02-28T04:21:30.054Z,3.97
2023-02-28T04:23:57.146Z,4.07
2023-02-28T04:26:23.836Z,4.25
2023-02-28T04:28:50.518Z,3.47
2023-02-28T04:31:17.287Z,3.70
2023-02-28T04:33:43.997Z,3.70
2023-02-28T04:36:10.767Z,3.72
2023-02-28T04:38:39.971Z,3.80
2023-02-28T04:41:07.202Z,3.90
2023-02-28T04:43:33.884Z,3.70
2023-02-28T04:46:03.884Z,4.18
2023-02-28T04:48:32.943Z,4.10
2023-02-28T04:51:01.535Z,3.38
2023-02-28T04:53:28.822Z,4.07
2023-02-28T04:55:57.059Z,3.33
2023-02-28T04:58:23.932Z,4.32
2023-02-28T05:00:50.740Z,5.55
2023-02-28T05:03:17.536Z,3.30
2023-02-28T05:05:44.294Z,3.85
2023-02-28T05:08:11.114Z,4.13
2023-02-28T05:10:37.966Z,4.10
2023-02-28T05:13:06.025Z,4.55
2023-02-28T05:15:34.674Z,4.88
2023-02-28T05:18:02.342Z,5.03
2023-02-28T05:20:29.127Z,4.25
2023-02-28T05:22:55.943Z,4.30
2023-02-28T05:25:23.042Z,4.40
2023-02-28T05:27:49.946Z,3.78
2023-02-28T05:30:18.409Z,3.83
2023-02-28T05:32:45.137Z,4.32
2023-02-28T05:35:12.744Z,4.20
2023-02-28T05:37:40.086Z,5.00
2023-02-28T05:40:08.132Z,3.42
2023-02-28T05:42:34.943Z,4.25
2023-02-28T05:45:01.656Z,4.78
2023-02-28T05:47:32.427Z,4.10
2023-02-28T05:49:59.162Z,3.50
2023-02-28T05:52:25.891Z,5.10
2023-02-28T05:54:52.648Z,4.22
2023-02-28T05:57:24.733Z,4.65
2023-02-28T05:59:51.778Z,4.22
2023-02-28T06:02:19.000Z,5.25
2023-02-28T06:04:47.198Z,4.00
2023-02-28T06:07:13.973Z,4.80
2023-02-28T06:09:40.669Z,4.75
2023-02-28T06:12:08.233Z,4.75
2023-02-28T06:14:35.229Z,4.78
2023-02-28T06:17:02.516Z,3.47
2023-02-28T06:19:29.448Z,4.30
2023-02-28T06:21:57.959Z,4.47
2023-02-28T06:24:25.891Z,4.72
2023-02-28T06:26:52.636Z,4.45
2023-02-28T06:29:19.350Z,4.10
2023-02-28T06:31:46.502Z,4.10
2023-02-28T06:34:14.089Z,4.25
2023-02-28T06:36:41.512Z,4.50
2023-02-28T06:39:10.186Z,4.57
2023-02-28T06:41:53.076Z,4.97
2023-02-28T06:46:48.431Z,3.33
2023-02-28T06:49:15.347Z,3.60
2023-02-28T06:51:44.526Z,5.28
2023-02-28T06:54:13.174Z,4.30
2023-02-28T06:56:40.389Z,4.75
2023-02-28T06:59:07.123Z,3.40
2023-02-28T07:01:33.979Z,3.38
2023-02-28T07:04:01.280Z,4.95
2023-02-28T07:06:28.625Z,4.68
2023-02-28T07:08:55.907Z,4.22
2023-02-28T07:11:25.934Z,4.97
2023-02-28T07:13:52.668Z,5.00
2023-02-28T07:16:19.704Z,4.30
2023-02-28T07:18:46.533Z,4.35
2023-02-28T07:21:13.682Z,4.40
2023-02-28T07:23:40.628Z,5.63
2023-02-28T07:26:11.368Z,4.32
2023-02-28T07:28:39.519Z,5.18
2023-02-28T07:31:07.424Z,3.97
2023-02-28T07:33:34.429Z,5.30
2023-02-28T07:36:01.960Z,4.95
2023-02-28T07:38:28.690Z,4.68
2023-02-28T07:40:55.346Z,5.35
2023-02-28T07:43:22.057Z,4.70
2023-02-28T07:45:50.147Z,4.72
2023-02-28T07:48:16.847Z,5.32
2023-02-28T07:50:43.733Z,3.90
2023-02-28T07:53:10.432Z,5.65
2023-02-28T07:55:37.471Z,6.80
2023-02-28T07:58:04.253Z,4.53
2023-02-28T08:00:31.051Z,6.18
2023-02-28T08:02:59.153Z,4.25
2023-02-28T08:05:25.968Z,5.93
2023-02-28T08:07:52.717Z,5.85
2023-02-28T08:10:19.599Z,5.32
2023-02-28T08:12:46.304Z,4.55
2023-02-28T08:15:13.008Z,5.82
2023-02-28T08:17:39.916Z,4.70
2023-02-28T08:20:09.514Z,5.20
2023-02-28T08:22:36.189Z,5.72
2023-02-28T08:25:02.946Z,4.90
2023-02-28T08:27:29.688Z,5.90
2023-02-28T08:29:56.365Z,7.78
2023-02-28T08:32:29.908Z,5.57
2023-02-28T08:37:25.159Z,5.53
2023-02-28T08:39:54.732Z,5.15
2023-02-28T08:42:22.865Z,5.25
2023-02-28T08:44:49.638Z,4.60
2023-02-28T08:47:16.531Z,5.75
2023-02-28T08:49:43.396Z,4.57
2023-02-28T08:52:10.178Z,5.50
2023-02-28T08:54:38.283Z,7.78
2023-02-28T08:57:05.061Z,6.63
2023-02-28T08:59:31.820Z,7.85
2023-02-28T09:01:58.549Z,7.20
2023-02-28T09:04:25.523Z,6.50
2023-02-28T09:06:52.316Z,5.88
2023-02-28T09:09:19.128Z,5.57
2023-02-28T09:11:47.163Z,6.43
2023-02-28T09:14:13.969Z,5.88
2023-02-28T09:16:40.705Z,7.45
2023-02-28T09:19:07.384Z,6.55
2023-02-28T09:21:34.237Z,7.10
2023-02-28T09:24:00.951Z,5.57
2023-02-28T09:26:34.827Z,5.35
2023-02-28T09:29:10.680Z,6.38
2023-02-28T09:31:37.372Z,6.57
2023-02-28T09:34:05.148Z,7.30
2023-02-28T09:36:43.563Z,5.53
2023-02-28T09:39:11.598Z,6.53
2023-02-28T09:41:41.006Z,7.32
2023-02-28T09:44:13.787Z,5.63
2023-02-28T09:46:45.505Z,6.00
2023-02-28T09:49:15.886Z,7.63
2023-02-28T09:51:50.584Z,4.78
2023-02-28T09:54:19.815Z,5.32
2023-02-28T09:56:50.882Z,6.63
2023-02-28T09:59:30.389Z,5.20
2023-02-28T10:02:07.503Z,6.90
2023-02-28T10:04:43.295Z,6.80
2023-02-28T10:07:20.571Z,6.25
2023-02-28T10:09:52.923Z,4.53
2023-02-28T10:12:21.105Z,6.28
2023-02-28T10:14:53.432Z,5.20
2023-02-28T10:17:24.682Z,6.88
2023-02-28T10:19:59.700Z,6.28
2023-02-28T10:22:30.000Z,6.50
2023-02-28T10:24:58.044Z,6.97
2023-02-28T10:27:26.790Z,5.80
2023-02-28T10:29:56.690Z,6.07
2023-02-28T10:32:26.054Z,6.38
2023-02-28T10:34:56.366Z,5.72
2023-02-28T10:37:23.155Z,5.40
2023-02-28T10:39:49.880Z,5.88
2023-02-28T10:42:23.409Z,8.13
2023-02-28T10:44:50.134Z,5.95
2023-02-28T10:47:20.365Z,6.78
2023-02-28T10:49:51.533Z,6.95
2023-02-28T10:52:36.569Z,7.68
2023-02-28T10:55:22.366Z,8.43
2023-02-28T10:57:50.518Z,6.97
2023-02-28T11:00:19.536Z,6.70
2023-02-28T11:02:47.615Z,7.68
2023-02-28T11:05:29.190Z,6.53
2023-02-28T11:07:57.681Z,6.90
2023-02-28T11:10:29.419Z,6.32
2023-02-28T11:12:58.715Z,6.65
2023-02-28T11:15:29.507Z,6.47
2023-02-28T11:17:59.889Z,6.18
2023-02-28T11:20:29.509Z,6.65
2023-02-28T11:22:58.138Z,5.70
2023-02-28T11:25:29.391Z,5.70
2023-02-28T11:27:57.764Z,6.82
2023-02-28T11:30:27.693Z,6.25
2023-02-28T11:32:54.785Z,5.60
2023-02-28T11:35:28.993Z,6.15
2023-02-28T11:37:56.064Z,5.22
2023-02-28T11:40:30.979Z,6.95
2023-02-28T11:43:07.135Z,6.85
2023-02-28T11:45:45.964Z,6.05
2023-02-28T11:48:21.295Z,6.95
2023-02-28T11:50:57.364Z,8.43
2023-02-28T11:53:40.857Z,5.45
2023-02-28T11:56:14.703Z,5.57
2023-02-28T11:58:51.050Z,6.88
2023-02-28T12:01:31.481Z,6.88
2023-02-28T12:04:10.577Z,6.43
2023-02-28T12:06:46.142Z,5.68
2023-02-28T12:09:30.526Z,7.15
2023-02-28T12:12:01.116Z,6.95
2023-02-28T12:14:50.647Z,6.57
2023-02-28T12:17:28.832Z,6.00
2023-02-28T12:20:02.165Z,5.88
2023-02-28T12:22:32.109Z,6.78
2023-02-28T12:25:35.586Z,6.13
2023-02-28T12:28:03.069Z,6.60
2023-02-28T12:30:33.001Z,6.18
2023-02-28T12:33:04.704Z,6.63
2023-02-28T12:35:36.757Z,6.00
2023-02-28T12:38:09.690Z,6.47
2023-02-28T12:40:45.726Z,6.30
2023-02-28T12:43:15.817Z,6.45
2023-02-28T12:45:47.191Z,5.78
2023-02-28T12:48:19.357Z,5.97
2023-02-28T12:50:46.542Z,6.68
2023-02-28T12:53:23.435Z,6.88
2023-02-28T12:55:57.516Z,11.45
2023-02-28T12:58:31.424Z,10.32
2023-02-28T13:01:30.593Z,7.90
2023-02-28T13:04:30.170Z,5.85
2023-02-28T13:07:11.414Z,7.50
2023-02-28T13:09:40.325Z,7.00
2023-02-28T13:12:15.019Z,6.43
2023-02-28T13:14:41.973Z,6.07
2023-02-28T13:17:13.902Z,6.47
2023-02-28T13:19:43.943Z,5.95
2023-02-28T13:22:19.568Z,5.85
2023-02-28T13:24:50.010Z,5.93
2023-02-28T13:27:34.816Z,6.50
2023-02-28T13:30:02.352Z,4.88
2023-02-28T13:32:35.849Z,7.07
2023-02-28T13:35:38.330Z,7.05
2023-02-28T13:38:18.027Z,5.72
2023-02-28T13:40:46.140Z,7.47
2023-02-28T13:43:22.598Z,7.93
2023-02-28T13:46:13.634Z,7.25
2023-02-28T13:48:41.773Z,6.18
2023-02-28T13:51:39.696Z,7.00
2023-02-28T13:54:20.468Z,7.90
2023-02-28T13:57:01.738Z,5.55
2023-02-28T13:59:36.327Z,6.78
2023-02-28T14:02:24.744Z,5.68
2023-02-28T14:05:05.814Z,8.35
2023-02-28T14:07:37.717Z,6.70
2023-02-28T14:10:07.216Z,5.60
2023-02-28T14:13:01.789Z,6.95
2023-02-28T14:15:38.812Z,6.65
2023-02-28T14:18:25.003Z,7.13
2023-02-28T14:21:10.754Z,6.35
2023-02-28T14:26:24.844Z,5.65
2023-02-28T14:29:16.155Z,5.93
2023-02-28T14:31:49.447Z,6.18
2023-02-28T14:34:32.848Z,4.82
2023-02-28T14:37:02.367Z,5.68
2023-02-28T14:39:30.922Z,7.55
2023-02-28T14:41:58.053Z,6.80
2023-02-28T14:44:28.574Z,5.70
2023-02-28T14:46:57.090Z,5.70
2023-02-28T14:49:28.919Z,6.00
2023-02-28T14:52:05.963Z,6.40
2023-02-28T14:54:33.252Z,6.93
2023-02-28T14:56:59.960Z,7.28
2023-02-28T14:59:31.165Z,7.40
2023-02-28T15:02:18.248Z,6.13
2023-02-28T15:04:52.876Z,6.22
2023-02-28T15:07:19.661Z,6.70
2023-02-28T15:09:46.324Z,7.65
2023-02-28T15:12:15.635Z,6.75
2023-02-28T15:14:45.050Z,7.90
2023-02-28T15:17:19.516Z,5.97
2023-02-28T15:19:52.256Z,7.32
2023-02-28T15:22:26.274Z,7.05
2023-02-28T15:27:23.303Z,7.50
2023-02-28T15:29:54.909Z,6.18
2023-02-28T15:32:26.851Z,6.18
2023-02-28T15:34:53.796Z,5.82
2023-02-28T15:37:38.372Z,5.47
2023-02-28T15:40:13.979Z,7.10
2023-02-28T15:42:40.982Z,6.53
2023-02-28T15:45:33.373Z,6.70
2023-02-28T15:48:08.758Z,7.70
2023-02-28T15:50:40.865Z,6.25
2023-02-28T15:53:14.376Z,5.82
2023-02-28T15:55:41.100Z,7.30
2023-02-28T15:58:12.411Z,7.10
2023-02-28T16:00:44.122Z,7.28
2023-02-28T16:03:42.291Z,8.45
2023-02-28T16:06:29.999Z,7.88
2023-02-28T16:08:56.705Z,6.32
2023-02-28T16:11:23.810Z,5.43
2023-02-28T16:13:51.931Z,6.57
2023-02-28T16:16:22.450Z,6.85
2023-02-28T16:18:49.562Z,6.53
2023-02-28T16:21:16.403Z,6.57
2023-02-28T16:23:43.416Z,6.47
2023-02-28T16:26:20.550Z,7.82
2023-02-28T16:28:47.481Z,7.53
2023-02-28T16:31:14.357Z,7.53
2023-02-28T16:33:42.570Z,6.63
2023-02-28T16:36:13.763Z,7.97
2023-02-28T16:38:40.473Z,7.55
2023-02-28T16:41:07.423Z,6.97
2023-02-28T16:43:34.214Z,7.05
2023-02-28T16:46:01.650Z,7.25
2023-02-28T16:48:28.620Z,7.47
2023-02-28T16:50:56.783Z,8.23
2023-02-28T16:53:23.622Z,7.38
2023-02-28T16:55:50.340Z,7.25
2023-02-28T16:58:17.754Z,7.30
2023-02-28T17:00:44.565Z,9.55
2023-02-28T17:03:31.961Z,10.98
2023-02-28T17:06:01.145Z,8.55
2023-02-28T17:08:27.858Z,8.37
2023-02-28T17:10:54.551Z,9.25
2023-02-28T17:13:21.235Z,11.15
2023-02-28T17:15:48.526Z,8.95
2023-02-28T17:18:16.256Z,10.90
2023-02-28T17:20:43.320Z,7.70
2023-02-28T17:23:11.344Z,8.15
2023-02-28T17:25:38.080Z,6.32
2023-02-28T17:28:05.090Z,7.18
2023-02-28T17:30:34.970Z,7.15
2023-02-28T17:33:01.747Z,6.95
2023-02-28T17:35:28.614Z,8.10
2023-02-28T17:37:55.369Z,7.75
2023-02-28T17:40:24.507Z,7.85
2023-02-28T17:42:51.308Z,8.38
2023-02-28T17:45:18.391Z,7.97
2023-02-28T17:47:48.009Z,8.27
2023-02-28T17:50:16.971Z,7.63
2023-02-28T17:52:43.730Z,6.93
2023-02-28T17:55:11.527Z,7.57
2023-02-28T17:57:40.183Z,14.18
2023-02-28T18:00:08.088Z,10.73
2023-02-28T18:02:35.279Z,14.05
2023-02-28T18:05:02.026Z,14.93
2023-02-28T18:07:29.676Z,11.57
2023-02-28T18:09:56.347Z,13.65
2023-02-28T18:12:24.525Z,13.93
2023-02-28T18:14:52.563Z,15.18
2023-02-28T18:17:19.233Z,9.23
2023-02-28T18:19:45.936Z,9.00
2023-02-28T18:22:12.633Z,8.27
2023-02-28T18:24:39.491Z,8.82
2023-02-28T18:27:06.430Z,8.95
2023-02-28T18:29:33.232Z,8.23
2023-02-28T18:32:01.324Z,9.60
2023-02-28T18:34:28.064Z,8.40
2023-02-28T18:36:54.735Z,7.25
2023-02-28T18:39:21.509Z,7.07
2023-02-28T18:41:48.213Z,7.43
2023-02-28T18:44:22.527Z,7.10
2023-02-28T18:46:50.072Z,7.57
2023-02-28T18:49:19.066Z,9.82
2023-02-28T18:51:46.055Z,8.82
2023-02-28T18:54:14.028Z,7.70
2023-02-28T18:56:42.740Z,8.05
2023-02-28T18:59:09.892Z,11.05
2023-02-28T19:01:37.733Z,8.52
2023-02-28T19:04:05.261Z,8.23
2023-02-28T19:06:33.816Z,9.55
2023-02-28T19:09:02.596Z,9.68
2023-02-28T19:11:29.695Z,10.98
2023-02-28T19:13:56.806Z,9.75
2023-02-28T19:16:24.149Z,8.45
2023-02-28T19:18:51.355Z,7.60
2023-02-28T19:21:19.995Z,7.38
2023-02-28T19:23:48.680Z,7.93
2023-02-28T19:26:17.908Z,8.18
2023-02-28T19:28:44.639Z,7.20
2023-02-28T19:31:13.540Z,8.32
2023-02-28T19:33:40.540Z,7.40
2023-02-28T19:36:07.951Z,6.53
2023-02-28T19:38:34.670Z,6.75
2023-02-28T19:41:03.831Z,12.90
2023-02-28T19:43:30.946Z,8.75
2023-02-28T19:45:57.835Z,8.43
2023-02-28T19:48:24.689Z,7.32
2023-02-28T19:50:51.568Z,8.88
2023-02-28T19:53:18.283Z,8.73
2023-02-28T19:55:46.734Z,8.55
2023-02-28T19:58:14.838Z,7.70
2023-02-28T20:00:41.865Z,8.13
2023-02-28T20:03:08.601Z,9.32
2023-02-28T20:05:35.347Z,9.13
2023-02-28T20:08:02.067Z,9.40
2023-02-28T20:10:28.812Z,7.43
2023-02-28T20:12:55.513Z,8.45
2023-02-28T20:15:23.621Z,7.93
2023-02-28T20:17:50.330Z,7.22
2023-02-28T20:20:17.238Z,8.30
2023-02-28T20:22:43.929Z,7.60
2023-02-28T20:25:10.623Z,7.60
2023-02-28T20:27:38.011Z,7.70
2023-02-28T20:30:05.792Z,8.43
2023-02-28T20:32:35.053Z,8.98
2023-02-28T20:35:01.826Z,8.55
2023-02-28T20:37:28.653Z,8.90
2023-02-28T20:39:55.905Z,8.30
2023-02-28T20:42:22.662Z,9.52
2023-02-28T20:44:49.399Z,8.07
2023-02-28T20:47:16.124Z,8.73
2023-02-28T20:49:44.248Z,9.57
2023-02-28T20:52:10.934Z,9.45
2023-02-28T20:54:37.733Z,8.23
2023-02-28T20:57:04.503Z,8.52
2023-02-28T20:59:31.405Z,9.38
2023-02-28T21:01:58.156Z,8.98
2023-02-28T21:04:24.915Z,8.88
2023-02-28T21:06:53.012Z,9.18
2023-02-28T21:09:19.887Z,10.05
2023-02-28T21:11:46.805Z,13.20
2023-02-28T21:14:15.522Z,10.82
2023-02-28T21:16:42.761Z,9.00
2023-02-28T21:19:09.566Z,8.35
2023-02-28T21:21:38.671Z,8.27
2023-02-28T21:24:07.439Z,8.68
2023-02-28T21:26:34.514Z,8.73
2023-02-28T21:29:02.754Z,8.57
2023-02-28T21:31:32.247Z,9.25
2023-02-28T21:34:00.959Z,9.40
2023-02-28T21:36:30.649Z,9.55
2023-02-28T21:39:00.722Z,9.80
2023-02-28T21:41:29.096Z,9.73
2023-02-28T21:43:56.673Z,9.68
2023-02-28T21:46:25.580Z,10.50
2023-02-28T21:48:52.547Z,10.13
2023-02-28T21:51:21.024Z,10.05
2023-02-28T21:53:48.466Z,8.63
2023-02-28T21:56:18.119Z,8.70
2023-02-28T21:58:46.610Z,10.25
2023-02-28T22:01:15.925Z,8.77
2023-02-28T22:03:43.500Z,8.35
2023-02-28T22:06:11.931Z,9.20
2023-02-28T22:08:39.037Z,11.02
2023-02-28T22:11:05.785Z,11.15
2023-02-28T22:13:32.534Z,9.07
2023-02-28T22:16:04.296Z,10.32
2023-02-28T22:18:31.006Z,9.73
2023-02-28T22:20:57.787Z,9.68
2023-02-28T22:23:24.563Z,9.38
2023-02-28T22:25:51.284Z,12.38
2023-02-28T22:28:17.983Z,9.13
2023-02-28T22:30:44.740Z,8.52
2023-02-28T22:33:12.802Z,10.15
2023-02-28T22:35:39.520Z,8.65
2023-02-28T22:38:06.539Z,8.93
2023-02-28T22:40:35.560Z,9.75
2023-02-28T22:43:02.375Z,10.10
2023-02-28T22:45:29.073Z,8.88
2023-02-28T22:47:55.765Z,9.85
2023-02-28T22:50:23.795Z,9.30
2023-02-28T22:52:50.503Z,8.90
2023-02-28T22:55:17.390Z,8.73
2023-02-28T22:57:44.083Z,8.60
2023-02-28T23:00:12.298Z,10.65
2023-02-28T23:02:38.988Z,9.32
2023-02-28T23:05:06.446Z,9.88
2023-02-28T23:07:34.452Z,10.27
2023-02-28T23:10:04.323Z,8.85
2023-02-28T23:12:31.011Z,8.73
2023-02-28T23:14:57.706Z,13.15
2023-02-28T23:17:24.477Z,9.60
2023-02-28T23:19:51.250Z,8.90
2023-02-28T23:22:18.099Z,9.55
2023-02-28T23:24:46.174Z,9.35
2023-02-28T23:27:14.777Z,9.13
2023-02-28T23:29:41.735Z,9.48
2023-02-28T23:32:08.515Z,10.25
2023-02-28T23:34:35.278Z,9.65
2023-02-28T23:37:02.453Z,9.32
2023-02-28T23:39:30.867Z,8.90
2023-02-28T23:41:59.701Z,12.55
2023-02-28T23:44:26.467Z,8.85
2023-02-28T23:46:53.911Z,8.43
2023-02-28T23:49:21.475Z,8.45
2023-02-28T23:51:49.570Z,10.10
2023-02-28T23:54:17.175Z,9.48
2023-02-28T23:56:44.170Z,8.25
2023-02-28T23:59:12.229Z,9.00
